M/V Martha T — WDD5337 — position and weather

sailwx.info

Track history (hours):
 
Tides and Currents Weather Stations Pressure Air Temp Water Temp Dewpoint Dewpoint Depression Visibility Wind Speed Wind Dir Waves Ship Positions

M/V Martha T

Owner: The Tug Martha T, L.L.C., Sugarland, TX. More information available from US FCC via Universal Licensing System and Coast Guard Vessel Documentation Center.

Last reported at 2018-Feb-20 03:30 UTC. Time now 2018-Feb-20 03:51 UTC.
Position N 29°44' W 095°01'.

Type: Tug. MMSI: 367156850.

Date/timePositionNaut miles runAvg speedWind from/ knotsBaromVisibWave heightAir tempDewpointWater temp
2018-Feb-20 03:30N 29°44' W 095°01'0 0.0
2018-Feb-20 02:58N 29°44' W 095°01'0 0.0
2018-Feb-20 02:30N 29°44' W 095°01'0 0.0
2018-Feb-20 02:00N 29°44' W 095°01'0 0.0
2018-Feb-20 01:30N 29°44' W 095°01'0 0.0
2018-Feb-20 01:00N 29°44' W 095°01'0 0.0
2018-Feb-20 00:29N 29°44' W 095°01'0 0.0
2018-Feb-20 00:00N 29°44' W 095°01'0 0.0
2018-Feb-19 23:28N 29°44' W 095°01'0 0.0
2018-Feb-19 23:00N 29°44' W 095°01'0 0.0
2018-Feb-19 22:30N 29°44' W 095°01'0 0.0
2018-Feb-19 21:56N 29°44' W 095°01'0 0.0
2018-Feb-19 21:23N 29°44' W 095°01'0 0.0
2018-Feb-19 20:51N 29°44' W 095°01'0 0.0
2018-Feb-19 20:29N 29°44' W 095°01'0 0.0
2018-Feb-19 19:57N 29°44' W 095°01'0 0.0
2018-Feb-19 18:17N 29°44' W 095°01'1 4.2
2018-Feb-19 18:00N 29°43' W 095°01'2 4.8
2018-Feb-19 17:31N 29°41' W 094°60'1 2.8
2018-Feb-19 17:00N 29°42' W 095°01'2 4.1
2018-Feb-19 16:30N 29°44' W 095°01'0 0.0
2018-Feb-19 15:43N 29°44' W 095°01'0 0.0
2018-Feb-19 15:22N 29°44' W 095°01'0 0.0
2018-Feb-19 14:59N 29°44' W 095°01'1 1.1
2018-Feb-19 14:29N 29°43' W 095°01'0 0.2
2018-Feb-19 14:01N 29°43' W 095°01'1 2.9
2018-Feb-19 13:30N 29°44' W 095°03'3 6.4
2018-Feb-19 13:00N 29°47' W 095°05'1 0.5
2018-Feb-19 11:01N 29°47' W 095°04'0 0.2
2018-Feb-19 10:56N 29°47' W 095°04'2 4.5
2018-Feb-19 10:26N 29°46' W 095°06'0 0.0
2018-Feb-19 09:59N 29°46' W 095°06'0 0.0
2018-Feb-19 09:30N 29°46' W 095°06'0 0.1
2018-Feb-19 09:01N 29°46' W 095°06'2 4.2
2018-Feb-19 08:30N 29°47' W 095°04'2 3.0
2018-Feb-19 07:59N 29°46' W 095°05'4 7.7
2018-Feb-19 07:30N 29°44' W 095°01'0 0.3
2018-Feb-19 06:56N 29°44' W 095°01'0 0.7
2018-Feb-19 06:17N 29°44' W 095°01'0 0.0
2018-Feb-19 06:00N 29°44' W 095°01'0 0.0
2018-Feb-19 05:28N 29°44' W 095°01'0 0.0
2018-Feb-19 01:18N 29°44' W 095°01'4 3.5
2018-Feb-19 00:11N 29°46' W 095°05'1 3.5
2018-Feb-18 23:57N 29°46' W 095°04'2 4.5
2018-Feb-18 23:30N 29°44' W 095°03'2 3.6
2018-Feb-18 23:00N 29°43' W 095°01'1 0.0
2018-Feb-17 22:25N 29°44' W 095°01'0 0.0
2018-Feb-17 11:16N 29°44' W 095°01'1 2.3
2018-Feb-17 11:00N 29°43' W 095°01'2 4.0
2018-Feb-17 10:31N 29°44' W 095°03'3 3.8
2018-Feb-17 09:48N 29°47' W 095°05'1 3.7
2018-Feb-17 09:29N 29°45' W 095°04'2 4.6
2018-Feb-17 09:00N 29°44' W 095°02'1 1.7
2018-Feb-17 08:23N 29°44' W 095°01'0 0.1
2018-Feb-17 04:49N 29°44' W 095°01'0 0.0
2018-Feb-17 03:32N 29°44' W 095°01'0 0.0
2018-Feb-17 03:12N 29°44' W 095°01'0 0.0
2018-Feb-17 01:57N 29°44' W 095°01'0 0.0
2018-Feb-17 00:21N 29°44' W 095°01'0 0.0
2018-Feb-16 19:58N 29°44' W 095°01'0 0.0
2018-Feb-16 18:47N 29°44' W 095°01'0 0.0
2018-Feb-16 18:30N 29°44' W 095°01'0 0.0
2018-Feb-16 18:00N 29°44' W 095°01'0 0.0
2018-Feb-16 17:30N 29°44' W 095°01'0 0.0
2018-Feb-16 17:00N 29°44' W 095°01'0 0.0
2018-Feb-16 16:31N 29°44' W 095°01'0 0.0
2018-Feb-16 16:01N 29°44' W 095°01'0 0.0
2018-Feb-16 15:31N 29°44' W 095°01'0 0.0
2018-Feb-16 15:00N 29°44' W 095°01'0 0.0
2018-Feb-16 14:30N 29°44' W 095°01'0 0.0
2018-Feb-16 14:00N 29°44' W 095°01'0 0.0
2018-Feb-16 13:31N 29°44' W 095°01'0 0.0
2018-Feb-16 13:00N 29°44' W 095°01'0 0.0
2018-Feb-16 12:30N 29°44' W 095°01'0 0.0
2018-Feb-16 11:59N 29°44' W 095°01'0 0.0
2018-Feb-16 11:29N 29°44' W 095°01'0 0.0
2018-Feb-16 10:59N 29°44' W 095°01'0 0.0
2018-Feb-16 05:05N 29°44' W 095°01'0 4.2
2018-Feb-16 04:59N 29°43' W 095°01'0 0.1
2018-Feb-16 04:19N 29°44' W 095°01'0 0.1
2018-Feb-16 03:54N 29°44' W 095°01'0 0.4
2018-Feb-16 03:23N 29°43' W 095°01'1 0.8
2018-Feb-16 02:44N 29°44' W 095°02'3 6.5
2018-Feb-16 02:15N 29°46' W 095°05'1 4.9
2018-Feb-16 02:00N 29°47' W 095°04'1 1.2
2018-Feb-16 01:14N 29°47' W 095°04'0 0.8
2018-Feb-16 00:58N 29°47' W 095°04'3 0.6
2018-Feb-15 19:35N 29°45' W 095°06'0 0.0
2018-Feb-15 07:33N 29°45' W 095°06'0 0.0
2018-Feb-15 06:39N 29°45' W 095°06'0 0.0
2018-Feb-15 06:25N 29°45' W 095°06'0 0.0
2018-Feb-15 05:55N 29°45' W 095°06'0 0.0
2018-Feb-15 04:46N 29°45' W 095°06'0 0.0
2018-Feb-15 04:18N 29°45' W 095°06'1 0.1
2018-Feb-14 18:26N 29°46' W 095°05'2 4.1
2018-Feb-14 17:59N 29°47' W 095°04'0 0.4
2018-Feb-14 17:03N 29°47' W 095°04'0 4.4
2018-Feb-14 16:57N 29°47' W 095°05'1 2.8
2018-Feb-14 16:29N 29°46' W 095°06'2 3.7
2018-Feb-14 15:51N 29°44' W 095°08'2 4.1
2018-Feb-14 15:15N 29°46' W 095°06'0 0.0
2018-Feb-14 15:00N 29°46' W 095°06'0 0.0
2018-Feb-14 14:29N 29°46' W 095°06'2 0.1
2018-Feb-13 18:38N 29°45' W 095°04'2 0.0
2018-Feb-11 18:42N 29°44' W 095°01'1 2.4
2018-Feb-11 18:30N 29°43' W 095°01'2 0.1
2018-Feb-10 21:58N 29°44' W 095°03'2 0.4
2018-Feb-10 17:58N 29°45' W 095°04'3 5.7
2018-Feb-10 17:23N 29°43' W 095°01'2 5.2
2018-Feb-10 17:00N 29°42' W 094°59'2 3.9
2018-Feb-10 16:31N 29°40' W 094°59'3 5.7
2018-Feb-10 16:00N 29°37' W 094°57'3 6.7
2018-Feb-10 15:31N 29°37' W 095°01'0 0.4
2018-Feb-10 14:59N 29°37' W 095°01'0 0.0
2018-Feb-10 14:30N 29°37' W 095°01'0 0.0
2018-Feb-10 14:01N 29°37' W 095°01'0 0.0
2018-Feb-10 13:31N 29°37' W 095°01'0 0.0
2018-Feb-10 13:01N 29°37' W 095°01'0 0.0
2018-Feb-10 12:30N 29°37' W 095°01'0 0.0
2018-Feb-10 12:00N 29°37' W 095°01'0 0.0
2018-Feb-10 11:31N 29°37' W 095°01'0 0.0
2018-Feb-10 11:00N 29°37' W 095°01'0 0.0
2018-Feb-10 10:31N 29°37' W 095°01'0 0.0
2018-Feb-10 10:00N 29°37' W 095°01'0 0.0
2018-Feb-10 09:30N 29°37' W 095°01'0 0.0
2018-Feb-10 09:00N 29°37' W 095°01'0 0.0
2018-Feb-10 08:31N 29°37' W 095°01'0 0.0
2018-Feb-10 08:01N 29°37' W 095°01'0 0.0
2018-Feb-10 07:30N 29°37' W 095°01'0 0.0
2018-Feb-10 07:01N 29°37' W 095°01'0 0.0
2018-Feb-10 06:30N 29°37' W 095°01'0 0.0
2018-Feb-10 06:00N 29°37' W 095°01'0 0.0
2018-Feb-10 05:30N 29°37' W 095°01'0 0.0
2018-Feb-10 05:00N 29°37' W 095°01'0 0.0
2018-Feb-10 04:31N 29°37' W 095°01'0 0.0
2018-Feb-10 04:01N 29°37' W 095°01'  
Track history (hours):
 
Tides and Currents Weather Stations Pressure Air Temp Water Temp Dewpoint Dewpoint Depression Visibility Wind Speed Wind Dir Waves Ship Positions

M/V Martha T

Owner: The Tug Martha T, L.L.C., Sugarland, TX. More information available from US FCC via Universal Licensing System and Coast Guard Vessel Documentation Center.

Last reported at 2018-Feb-20 03:30 UTC. Time now 2018-Feb-20 03:51 UTC.
Position N 29°44' W 095°01'.

Type: Tug. MMSI: 367156850.

Date/timePositionNaut miles runAvg speedWind from/ knotsBaromVisibWave heightAir tempDewpointWater temp
2018-Feb-20 03:30N 29°44' W 095°01'0 0.0
2018-Feb-20 02:58N 29°44' W 095°01'0 0.0
2018-Feb-20 02:30N 29°44' W 095°01'0 0.0
2018-Feb-20 02:00N 29°44' W 095°01'0 0.0
2018-Feb-20 01:30N 29°44' W 095°01'0 0.0
2018-Feb-20 01:00N 29°44' W 095°01'0 0.0
2018-Feb-20 00:29N 29°44' W 095°01'0 0.0
2018-Feb-20 00:00N 29°44' W 095°01'0 0.0
2018-Feb-19 23:28N 29°44' W 095°01'0 0.0
2018-Feb-19 23:00N 29°44' W 095°01'0 0.0
2018-Feb-19 22:30N 29°44' W 095°01'0 0.0
2018-Feb-19 21:56N 29°44' W 095°01'0 0.0
2018-Feb-19 21:23N 29°44' W 095°01'0 0.0
2018-Feb-19 20:51N 29°44' W 095°01'0 0.0
2018-Feb-19 20:29N 29°44' W 095°01'0 0.0
2018-Feb-19 19:57N 29°44' W 095°01'0 0.0
2018-Feb-19 18:17N 29°44' W 095°01'1 4.2
2018-Feb-19 18:00N 29°43' W 095°01'2 4.8
2018-Feb-19 17:31N 29°41' W 094°60'1 2.8
2018-Feb-19 17:00N 29°42' W 095°01'2 4.1
2018-Feb-19 16:30N 29°44' W 095°01'0 0.0
2018-Feb-19 15:43N 29°44' W 095°01'0 0.0
2018-Feb-19 15:22N 29°44' W 095°01'0 0.0
2018-Feb-19 14:59N 29°44' W 095°01'1 1.1
2018-Feb-19 14:29N 29°43' W 095°01'0 0.2
2018-Feb-19 14:01N 29°43' W 095°01'1 2.9
2018-Feb-19 13:30N 29°44' W 095°03'3 6.4
2018-Feb-19 13:00N 29°47' W 095°05'1 0.5
2018-Feb-19 11:01N 29°47' W 095°04'0 0.2
2018-Feb-19 10:56N 29°47' W 095°04'2 4.5
2018-Feb-19 10:26N 29°46' W 095°06'0 0.0
2018-Feb-19 09:59N 29°46' W 095°06'0 0.0
2018-Feb-19 09:30N 29°46' W 095°06'0 0.1
2018-Feb-19 09:01N 29°46' W 095°06'2 4.2
2018-Feb-19 08:30N 29°47' W 095°04'2 3.0
2018-Feb-19 07:59N 29°46' W 095°05'4 7.7
2018-Feb-19 07:30N 29°44' W 095°01'0 0.3
2018-Feb-19 06:56N 29°44' W 095°01'0 0.7
2018-Feb-19 06:17N 29°44' W 095°01'0 0.0
2018-Feb-19 06:00N 29°44' W 095°01'0 0.0
2018-Feb-19 05:28N 29°44' W 095°01'0 0.0
2018-Feb-19 01:18N 29°44' W 095°01'4 3.5
2018-Feb-19 00:11N 29°46' W 095°05'1 3.5
2018-Feb-18 23:57N 29°46' W 095°04'2 4.5
2018-Feb-18 23:30N 29°44' W 095°03'2 3.6
2018-Feb-18 23:00N 29°43' W 095°01'1 0.0
2018-Feb-17 22:25N 29°44' W 095°01'0 0.0
2018-Feb-17 11:16N 29°44' W 095°01'1 2.3
2018-Feb-17 11:00N 29°43' W 095°01'2 4.0
2018-Feb-17 10:31N 29°44' W 095°03'3 3.8
2018-Feb-17 09:48N 29°47' W 095°05'1 3.7
2018-Feb-17 09:29N 29°45' W 095°04'2 4.6
2018-Feb-17 09:00N 29°44' W 095°02'1 1.7
2018-Feb-17 08:23N 29°44' W 095°01'0 0.1
2018-Feb-17 04:49N 29°44' W 095°01'0 0.0
2018-Feb-17 03:32N 29°44' W 095°01'0 0.0
2018-Feb-17 03:12N 29°44' W 095°01'0 0.0
2018-Feb-17 01:57N 29°44' W 095°01'0 0.0
2018-Feb-17 00:21N 29°44' W 095°01'0 0.0
2018-Feb-16 19:58N 29°44' W 095°01'0 0.0
2018-Feb-16 18:47N 29°44' W 095°01'0 0.0
2018-Feb-16 18:30N 29°44' W 095°01'0 0.0
2018-Feb-16 18:00N 29°44' W 095°01'0 0.0
2018-Feb-16 17:30N 29°44' W 095°01'0 0.0
2018-Feb-16 17:00N 29°44' W 095°01'0 0.0
2018-Feb-16 16:31N 29°44' W 095°01'0 0.0
2018-Feb-16 16:01N 29°44' W 095°01'0 0.0
2018-Feb-16 15:31N 29°44' W 095°01'0 0.0
2018-Feb-16 15:00N 29°44' W 095°01'0 0.0
2018-Feb-16 14:30N 29°44' W 095°01'0 0.0
2018-Feb-16 14:00N 29°44' W 095°01'0 0.0
2018-Feb-16 13:31N 29°44' W 095°01'0 0.0
2018-Feb-16 13:00N 29°44' W 095°01'0 0.0
2018-Feb-16 12:30N 29°44' W 095°01'0 0.0
2018-Feb-16 11:59N 29°44' W 095°01'0 0.0
2018-Feb-16 11:29N 29°44' W 095°01'0 0.0
2018-Feb-16 10:59N 29°44' W 095°01'0 0.0
2018-Feb-16 05:05N 29°44' W 095°01'0 4.2
2018-Feb-16 04:59N 29°43' W 095°01'0 0.1
2018-Feb-16 04:19N 29°44' W 095°01'0 0.1
2018-Feb-16 03:54N 29°44' W 095°01'0 0.4
2018-Feb-16 03:23N 29°43' W 095°01'1 0.8
2018-Feb-16 02:44N 29°44' W 095°02'3 6.5
2018-Feb-16 02:15N 29°46' W 095°05'1 4.9
2018-Feb-16 02:00N 29°47' W 095°04'1 1.2
2018-Feb-16 01:14N 29°47' W 095°04'0 0.8
2018-Feb-16 00:58N 29°47' W 095°04'3 0.6
2018-Feb-15 19:35N 29°45' W 095°06'0 0.0
2018-Feb-15 07:33N 29°45' W 095°06'0 0.0
2018-Feb-15 06:39N 29°45' W 095°06'0 0.0
2018-Feb-15 06:25N 29°45' W 095°06'0 0.0
2018-Feb-15 05:55N 29°45' W 095°06'0 0.0
2018-Feb-15 04:46N 29°45' W 095°06'0 0.0
2018-Feb-15 04:18N 29°45' W 095°06'1 0.1
2018-Feb-14 18:26N 29°46' W 095°05'2 4.1
2018-Feb-14 17:59N 29°47' W 095°04'0 0.4
2018-Feb-14 17:03N 29°47' W 095°04'0 4.4
2018-Feb-14 16:57N 29°47' W 095°05'1 2.8
2018-Feb-14 16:29N 29°46' W 095°06'2 3.7
2018-Feb-14 15:51N 29°44' W 095°08'2 4.1
2018-Feb-14 15:15N 29°46' W 095°06'0 0.0
2018-Feb-14 15:00N 29°46' W 095°06'0 0.0
2018-Feb-14 14:29N 29°46' W 095°06'2 0.1
2018-Feb-13 18:38N 29°45' W 095°04'2 0.0
2018-Feb-11 18:42N 29°44' W 095°01'1 2.4
2018-Feb-11 18:30N 29°43' W 095°01'2 0.1
2018-Feb-10 21:58N 29°44' W 095°03'2 0.4
2018-Feb-10 17:58N 29°45' W 095°04'3 5.7
2018-Feb-10 17:23N 29°43' W 095°01'2 5.2
2018-Feb-10 17:00N 29°42' W 094°59'2 3.9
2018-Feb-10 16:31N 29°40' W 094°59'3 5.7
2018-Feb-10 16:00N 29°37' W 094°57'3 6.7
2018-Feb-10 15:31N 29°37' W 095°01'0 0.4
2018-Feb-10 14:59N 29°37' W 095°01'0 0.0
2018-Feb-10 14:30N 29°37' W 095°01'0 0.0
2018-Feb-10 14:01N 29°37' W 095°01'0 0.0
2018-Feb-10 13:31N 29°37' W 095°01'0 0.0
2018-Feb-10 13:01N 29°37' W 095°01'0 0.0
2018-Feb-10 12:30N 29°37' W 095°01'0 0.0
2018-Feb-10 12:00N 29°37' W 095°01'0 0.0
2018-Feb-10 11:31N 29°37' W 095°01'0 0.0
2018-Feb-10 11:00N 29°37' W 095°01'0 0.0
2018-Feb-10 10:31N 29°37' W 095°01'0 0.0
2018-Feb-10 10:00N 29°37' W 095°01'0 0.0
2018-Feb-10 09:30N 29°37' W 095°01'0 0.0
2018-Feb-10 09:00N 29°37' W 095°01'0 0.0
2018-Feb-10 08:31N 29°37' W 095°01'0 0.0
2018-Feb-10 08:01N 29°37' W 095°01'0 0.0
2018-Feb-10 07:30N 29°37' W 095°01'0 0.0
2018-Feb-10 07:01N 29°37' W 095°01'0 0.0
2018-Feb-10 06:30N 29°37' W 095°01'0 0.0
2018-Feb-10 06:00N 29°37' W 095°01'0 0.0
2018-Feb-10 05:30N 29°37' W 095°01'0 0.0
2018-Feb-10 05:00N 29°37' W 095°01'0 0.0
2018-Feb-10 04:31N 29°37' W 095°01'0 0.0
2018-Feb-10 04:01N 29°37' W 095°01'  

Dump ship's entire track history